Time;durP1;ratioP1;P1;durP2;ratioP2;P2;SDS_P1;SDS_P2;PMS_P1;PMS_P2;Temp;Humidity;BMP_temperature;BMP_pressure;BME280_temperature;BME280_humidity;BME280_pressure;Samples;Min_cycle;Max_cycle;Signal;HPM_P1;HPM_P2
2021/06/01 00:02:02;;;;;;;2.80;2.00;;;;;;;17.85;50.74;98280.31;5022902;28;20231;-70
2021/06/01 00:04:28;;;;;;;3.37;2.07;;;;;;;17.46;52.36;98276.56;5019847;28;20209;-69
2021/06/01 00:06:55;;;;;;;2.90;1.80;;;;;;;17.65;52.88;98277.22;5021988;28;20227;-69
2021/06/01 00:09:23;;;;;;;2.57;2.00;;;;;;;17.50;52.74;98269.63;5011452;28;20209;-72
2021/06/01 00:11:50;;;;;;;1.90;1.47;;;;;;;17.43;53.12;98270.81;4998685;28;20197;-70
2021/06/01 00:14:19;;;;;;;2.13;1.80;;;;;;;17.49;52.94;98269.88;5010197;28;20200;-70
2021/06/01 00:16:47;;;;;;;2.33;1.70;;;;;;;17.47;53.36;98263.91;5010291;28;20219;-71
2021/06/01 00:19:14;;;;;;;3.73;2.13;;;;;;;17.36;53.88;98270.91;5006910;28;20204;-71
2021/06/01 00:21:42;;;;;;;3.77;1.87;;;;;;;17.52;53.39;98264.81;5007258;28;20660;-70
2021/06/01 00:24:09;;;;;;;1.80;1.60;;;;;;;17.33;53.65;98265.97;5009679;28;20486;-70
2021/06/01 00:26:38;;;;;;;1.87;1.67;;;;;;;17.30;54.81;98268.34;5014022;28;20231;-72
2021/06/01 00:29:05;;;;;;;2.27;1.77;;;;;;;17.25;54.24;98265.53;5010747;28;20222;-71
2021/06/01 00:31:34;;;;;;;2.30;1.90;;;;;;;17.09;54.92;98268.94;5021699;28;20334;-71
2021/06/01 00:34:01;;;;;;;3.00;2.03;;;;;;;17.18;54.65;98264.84;5012014;28;20630;-71
2021/06/01 00:36:28;;;;;;;3.17;1.70;;;;;;;17.60;53.52;98266.31;5006039;28;20313;-71
2021/06/01 00:38:54;;;;;;;2.57;1.77;;;;;;;17.40;54.17;98258.63;5010857;28;20238;-72
2021/06/01 00:41:21;;;;;;;2.43;1.93;;;;;;;17.38;53.81;98258.00;5012776;28;20290;-71
2021/06/01 00:43:48;;;;;;;2.47;2.00;;;;;;;17.47;53.36;98258.50;5007481;28;20639;-71
2021/06/01 00:46:15;;;;;;;2.87;1.70;;;;;;;17.57;52.82;98259.50;5013057;28;20225;-71
2021/06/01 00:48:44;;;;;;;2.90;1.70;;;;;;;17.42;53.36;98259.19;5013858;28;20287;-71
2021/06/01 00:51:11;;;;;;;2.37;2.10;;;;;;;17.45;53.81;98250.63;5014649;28;20327;-71
2021/06/01 00:53:39;;;;;;;2.63;1.80;;;;;;;17.66;52.71;98250.00;5013654;28;20751;-71
2021/06/01 00:56:07;;;;;;;2.43;1.53;;;;;;;17.39;54.23;98256.16;5016390;28;20600;-71
2021/06/01 00:58:34;;;;;;;4.83;2.23;;;;;;;17.49;53.95;98248.28;5014506;28;20249;-71
2021/06/01 01:01:18;;;;;;;5.57;2.10;;;;;;;17.36;54.55;98252.03;5019021;28;20231;-70
2021/06/01 01:03:47;;;;;;;7.23;2.17;;;;;;;17.32;54.42;98253.56;5014172;28;20699;-71
2021/06/01 01:06:30;;;;;;;6.33;2.20;;;;;;;17.30;55.55;98247.59;5006027;28;20216;-71
2021/06/01 01:43:03;;;;;;;4.90;2.37;;;;;;;16.52;59.67;98237.41;5013168;28;20226;-71
2021/06/01 01:45:34;;;;;;;4.00;2.00;;;;;;;16.69;60.21;98243.75;5012515;28;20217;-72
2021/06/01 01:50:49;;;;;;;2.53;2.33;;;;;;;16.59;58.82;98244.34;5014418;28;20214;-72
2021/06/01 01:53:17;;;;;;;2.20;1.73;;;;;;;16.60;58.66;98247.84;5014233;28;20272;-71
2021/06/01 01:55:46;;;;;;;2.47;2.00;;;;;;;16.89;58.12;98238.81;5011102;28;20203;-71
2021/06/01 01:58:14;;;;;;;3.70;1.80;;;;;;;16.36;59.52;98236.19;5017887;28;20203;-70
2021/06/01 02:00:42;;;;;;;2.57;2.00;;;;;;;16.49;59.43;98243.25;5009530;28;20203;-71
2021/06/01 02:03:09;;;;;;;2.77;1.87;;;;;;;16.28;60.56;98233.00;5015360;28;20225;-71
2021/06/01 02:05:37;;;;;;;2.40;1.80;;;;;;;16.50;59.91;98250.28;5008604;28;20207;-69
2021/06/01 02:08:04;;;;;;;2.63;1.93;;;;;;;16.59;58.49;98246.19;5007864;28;20226;-71
2021/06/01 02:10:31;;;;;;;3.10;2.20;;;;;;;16.32;60.98;98242.28;5005049;28;20207;-72
2021/06/01 02:12:57;;;;;;;2.70;2.07;;;;;;;16.64;58.95;98249.00;5011706;28;20204;-71
2021/06/01 02:15:26;;;;;;;3.37;2.40;;;;;;;16.26;62.00;98238.63;5010090;28;20207;-69
2021/06/01 02:17:53;;;;;;;9.53;2.50;;;;;;;16.57;60.61;98237.53;5012443;28;20227;-71
2021/06/01 02:20:19;;;;;;;2.53;2.00;;;;;;;16.10;63.35;98247.38;5014251;28;20207;-68
2021/06/01 02:25:38;;;;;;;2.70;2.10;;;;;;;16.56;60.33;98244.00;5009155;28;20295;-71
2021/06/01 02:28:12;;;;;;;2.23;2.00;;;;;;;16.32;61.45;98243.06;5008818;28;20219;-72
2021/06/01 02:30:52;;;;;;;2.60;2.10;;;;;;;16.13;61.91;98232.63;5010758;28;20207;-74
2021/06/01 02:33:20;;;;;;;3.27;2.00;;;;;;;16.13;63.00;98232.63;5010980;28;20217;-71
2021/06/01 02:35:48;;;;;;;3.00;2.20;;;;;;;15.98;63.02;98234.91;5006118;28;20206;-71
2021/06/01 02:55:35;;;;;;;2.83;1.97;;;;;;;16.12;62.17;98239.88;5009461;28;20265;-71
2021/06/01 02:58:02;;;;;;;3.50;2.00;;;;;;;15.82;64.45;98238.25;5005635;28;20314;-71
2021/06/01 03:00:29;;;;;;;2.70;2.20;;;;;;;15.88;64.04;98231.94;5011643;28;20214;-71
2021/06/01 03:02:56;;;;;;;2.70;2.00;;;;;;;15.77;64.04;98233.56;5011967;28;20765;-71
2021/06/01 03:05:30;;;;;;;2.37;1.83;;;;;;;15.94;63.23;98229.19;5002830;28;20200;-71
2021/06/01 03:08:07;;;;;;;3.20;2.13;;;;;;;15.95;63.83;98236.19;5005631;28;20218;-71
2021/06/01 03:10:35;;;;;;;5.30;2.73;;;;;;;16.07;63.44;98230.84;5004057;28;20302;-71
2021/06/01 03:13:03;;;;;;;2.70;2.10;;;;;;;15.86;64.00;98226.00;5012890;28;20270;-71
2021/06/01 03:15:30;;;;;;;4.17;2.47;;;;;;;16.06;63.32;98230.03;5009235;28;20212;-71
2021/06/01 03:17:57;;;;;;;4.13;2.20;;;;;;;15.74;65.22;98227.78;5021019;28;20223;-72
2021/06/01 03:20:24;;;;;;;4.43;2.37;;;;;;;15.96;64.18;98226.25;5002392;28;20203;-71
2021/06/01 03:22:51;;;;;;;3.43;2.60;;;;;;;15.93;64.64;98224.00;4999050;28;20219;-71
2021/06/01 03:25:18;;;;;;;4.27;2.43;;;;;;;15.81;64.68;98231.25;4999852;28;20203;-71
2021/06/01 03:27:47;;;;;;;4.93;2.83;;;;;;;15.71;64.58;98228.28;5003355;28;20226;-71
2021/06/01 03:30:14;;;;;;;4.47;2.70;;;;;;;15.57;66.51;98229.50;5015410;28;20202;-71
2021/06/01 03:32:41;;;;;;;3.37;2.20;;;;;;;15.96;63.83;98223.56;5007135;28;20199;-71
2021/06/01 03:35:09;;;;;;;3.70;2.60;;;;;;;15.98;64.53;98230.38;5001954;28;20215;-72
2021/06/01 03:37:36;;;;;;;3.93;2.60;;;;;;;15.78;66.17;98231.69;5005495;28;20218;-71
2021/06/01 03:40:05;;;;;;;4.90;2.80;;;;;;;15.53;66.46;98221.06;5008160;28;20215;-72
2021/06/01 03:42:32;;;;;;;3.70;2.20;;;;;;;15.84;64.71;98228.06;5008913;28;20582;-71
2021/06/01 03:45:00;;;;;;;4.23;2.47;;;;;;;15.62;66.53;98229.63;5006342;28;20233;-71
2021/06/01 03:47:27;;;;;;;4.70;3.40;;;;;;;15.60;66.85;98218.28;5010249;28;20218;-71
2021/06/01 03:49:55;;;;;;;5.50;3.70;;;;;;;15.71;65.55;98222.88;5009960;28;20268;-72
2021/06/01 03:52:22;;;;;;;4.90;2.53;;;;;;;15.94;65.44;98231.88;5008369;28;20211;-73
2021/06/01 03:54:49;;;;;;;5.60;2.70;;;;;;;16.09;64.37;98221.50;5004799;28;20198;-71
2021/06/01 03:57:15;;;;;;;5.00;2.60;;;;;;;16.06;64.41;98227.31;5010878;28;20239;-71
2021/06/01 03:59:42;;;;;;;3.80;2.53;;;;;;;16.24;63.53;98229.13;5007715;28;20668;-71
2021/06/01 04:02:10;;;;;;;5.70;2.90;;;;;;;16.18;63.87;98233.59;5012351;28;20203;-71
2021/06/01 04:04:37;;;;;;;5.50;3.00;;;;;;;16.00;64.31;98236.31;5012395;28;20203;-71
2021/06/01 04:07:04;;;;;;;6.67;2.60;;;;;;;15.63;66.61;98234.78;5006633;28;20230;-71
2021/06/01 04:09:31;;;;;;;4.53;2.60;;;;;;;16.27;64.45;98232.16;5014539;28;20280;-71
2021/06/01 04:11:58;;;;;;;7.33;2.70;;;;;;;16.40;63.64;98228.47;5010929;28;20203;-71
2021/06/01 04:14:25;;;;;;;6.03;2.50;;;;;;;16.57;62.70;98237.53;5013798;28;20230;-71
2021/06/01 04:16:52;;;;;;;3.40;2.43;;;;;;;16.45;62.60;98237.53;5012121;28;20234;-71
2021/06/01 04:19:20;;;;;;;8.10;2.63;;;;;;;16.42;63.78;98232.59;5012647;28;20211;-71
2021/06/01 04:21:47;;;;;;;3.80;2.30;;;;;;;16.72;62.39;98235.22;5014475;28;20199;-71
2021/06/01 04:24:14;;;;;;;4.33;2.13;;;;;;;16.72;62.83;98237.91;5016634;28;20231;-71
2021/06/01 04:26:40;;;;;;;3.03;2.37;;;;;;;16.83;62.43;98243.28;5015102;28;20707;-72
2021/06/01 04:29:07;;;;;;;3.30;2.40;;;;;;;17.04;61.58;98236.47;5014589;28;20915;-71
2021/06/01 04:31:34;;;;;;;3.17;2.30;;;;;;;17.07;61.48;98242.22;5008854;28;20634;-71
2021/06/01 04:34:01;;;;;;;6.67;2.40;;;;;;;17.29;60.51;98228.94;5012965;28;20257;-71
2021/06/01 04:36:29;;;;;;;4.37;2.20;;;;;;;17.38;59.55;98235.59;5016170;28;20219;-71
2021/06/01 04:38:56;;;;;;;3.73;2.47;;;;;;;17.60;58.97;98236.63;5003836;28;20212;-71
2021/06/01 04:41:22;;;;;;;4.63;2.47;;;;;;;17.69;57.16;98244.09;5013852;28;20205;-72
2021/06/01 04:43:49;;;;;;;3.70;2.63;;;;;;;17.92;55.44;98237.78;5018808;28;20221;-73
2021/06/01 04:46:17;;;;;;;4.80;2.40;;;;;;;18.22;55.14;98238.34;5013482;28;20247;-76
2021/06/01 04:48:44;;;;;;;3.73;2.60;;;;;;;18.47;53.88;98244.22;5003158;28;20203;-75
2021/06/01 04:51:16;;;;;;;6.17;2.53;;;;;;;18.51;53.11;98245.34;5015626;28;20210;-77
2021/06/01 04:53:47;;;;;;;4.90;2.63;;;;;;;18.95;51.96;98241.75;5013560;28;20199;-73
2021/06/01 04:56:14;;;;;;;3.30;2.63;;;;;;;19.18;50.01;98241.50;5015776;28;20228;-77
2021/06/01 04:58:40;;;;;;;3.17;2.40;;;;;;;19.53;48.49;98245.56;5016906;28;20618;-78
2021/06/01 05:01:07;;;;;;;7.90;2.67;;;;;;;19.72;47.87;98248.75;5013374;28;20207;-74
2021/06/01 05:03:34;;;;;;;4.40;2.70;;;;;;;18.83;49.61;98246.41;5012124;28;20229;-75
2021/06/01 05:06:01;;;;;;;2.93;2.43;;;;;;;19.22;48.31;98256.22;5015588;28;20206;-76
2021/06/01 05:08:28;;;;;;;6.30;2.90;;;;;;;19.50;46.89;98242.53;5015165;28;20238;-74
2021/06/01 05:10:56;;;;;;;4.00;2.40;;;;;;;19.52;48.16;98248.50;5010889;28;20229;-76
2021/06/01 05:13:23;;;;;;;5.00;2.77;;;;;;;18.71;51.16;98241.13;5012380;28;20635;-76
2021/06/01 05:15:51;;;;;;;4.67;2.67;;;;;;;18.35;53.96;98238.06;5013193;28;20211;-71
2021/06/01 05:18:18;;;;;;;5.50;3.13;;;;;;;18.40;52.68;98238.16;5015848;28;20259;-71
2021/06/01 05:20:46;;;;;;;3.43;2.90;;;;;;;20.17;47.64;98233.03;5011823;28;20594;-72
2021/06/01 05:23:13;;;;;;;5.30;3.07;;;;;;;19.32;47.58;98237.41;5007854;28;20233;-70
2021/06/01 05:25:40;;;;;;;7.00;3.27;;;;;;;20.78;43.41;98246.84;5008004;28;20269;-71
2021/06/01 05:28:09;;;;;;;4.70;3.30;;;;;;;19.04;48.01;98251.03;5016369;28;20240;-72
2021/06/01 05:30:38;;;;;;;4.63;2.87;;;;;;;20.13;45.23;98238.16;5015141;28;20220;-72
2021/06/01 05:33:17;;;;;;;5.20;2.70;;;;;;;20.54;43.36;98247.47;5015742;28;20240;-73
2021/06/01 05:35:51;;;;;;;3.93;2.67;;;;;;;20.51;43.31;98246.06;5011279;28;20199;-73
2021/06/01 05:38:18;;;;;;;5.73;2.80;;;;;;;19.98;45.67;98243.38;5029047;28;20444;-72
2021/06/01 05:40:45;;;;;;;4.90;3.13;;;;;;;19.59;46.67;98243.72;5019343;28;20290;-72
2021/06/01 05:43:14;;;;;;;3.77;2.77;;;;;;;19.47;47.20;98241.16;5014749;28;20689;-72
2021/06/01 05:45:41;;;;;;;4.27;2.73;;;;;;;20.68;42.41;98248.66;5014810;28;20219;-73
2021/06/01 05:48:09;;;;;;;6.50;3.00;;;;;;;20.12;43.85;98249.25;5016949;28;20260;-73
2021/06/01 05:50:37;;;;;;;5.30;2.70;;;;;;;19.83;45.67;98236.97;5016599;28;20214;-72
2021/06/01 05:53:05;;;;;;;4.00;2.73;;;;;;;19.81;45.13;98245.34;5008193;28;20229;-72
2021/06/01 05:55:33;;;;;;;5.00;2.60;;;;;;;20.20;43.76;98240.63;5009599;28;20204;-72
2021/06/01 05:57:59;;;;;;;7.20;2.77;;;;;;;20.81;42.52;98240.91;5037789;23;20564;-73
2021/06/01 06:00:30;;;;;;;6.17;2.87;;;;;;;21.87;39.26;98245.88;5030893;28;20243;-73
2021/06/01 06:02:57;;;;;;;6.20;2.70;;;;;;;21.20;40.28;98255.84;5020820;28;20627;-73
2021/06/01 06:05:23;;;;;;;7.10;2.43;;;;;;;22.06;39.11;98243.47;5021972;28;20201;-72
2021/06/01 06:07:51;;;;;;;5.17;3.13;;;;;;;21.68;39.66;98247.44;5015778;28;20233;-73
2021/06/01 06:10:18;;;;;;;6.40;3.00;;;;;;;21.72;39.23;98245.00;5012869;28;20213;-73
2021/06/01 06:12:46;;;;;;;5.00;2.77;;;;;;;21.47;40.10;98236.69;5012728;28;20206;-74
2021/06/01 06:15:15;;;;;;;4.50;3.00;;;;;;;21.19;40.93;98234.41;5010967;28;20202;-74
2021/06/01 06:17:53;;;;;;;4.27;2.50;;;;;;;21.50;40.58;98236.19;5008209;28;20316;-73
2021/06/01 06:20:20;;;;;;;5.77;2.87;;;;;;;20.71;41.97;98237.28;5013410;28;20296;-75
2021/06/01 06:22:47;;;;;;;5.87;2.67;;;;;;;20.59;41.20;98234.78;5012503;28;20334;-76
2021/06/01 06:25:15;;;;;;;3.73;2.30;;;;;;;21.42;38.66;98240.22;5012901;28;20207;-74
2021/06/01 06:27:42;;;;;;;4.93;2.10;;;;;;;21.37;38.22;98242.91;5007115;28;20230;-73
2021/06/01 06:30:10;;;;;;;3.10;2.30;;;;;;;20.33;39.84;98235.63;5013160;28;20206;-73
2021/06/01 06:32:37;;;;;;;3.00;1.90;;;;;;;20.17;40.29;98241.97;5011877;28;20199;-74
2021/06/01 06:35:07;;;;;;;4.80;2.23;;;;;;;21.23;39.53;98238.22;5012566;28;20306;-77
2021/06/01 06:37:34;;;;;;;4.57;2.23;;;;;;;22.42;37.30;98240.56;5012211;28;20226;-77
2021/06/01 06:40:01;;;;;;;3.20;2.43;;;;;;;22.30;37.38;98252.78;5012176;28;20210;-76
2021/06/01 06:42:28;;;;;;;4.43;2.33;;;;;;;20.59;39.69;98242.06;5008681;28;20216;-78
2021/06/01 06:44:55;;;;;;;2.87;2.17;;;;;;;22.44;36.86;98252.00;5014962;28;20204;-80
2021/06/01 06:47:27;;;;;;;7.77;2.93;;;;;;;21.57;39.26;98243.00;5014292;28;20283;-81
2021/06/01 06:49:55;;;;;;;4.80;2.83;;;;;;;22.16;37.89;98238.06;5011308;28;20188;-77
2021/06/01 06:52:23;;;;;;;3.00;2.27;;;;;;;20.87;38.57;98252.63;5013068;28;20195;-75
2021/06/01 06:54:50;;;;;;;2.87;2.20;;;;;;;22.42;36.51;98246.00;5013041;28;20199;-76
2021/06/01 06:57:17;;;;;;;3.67;2.40;;;;;;;22.67;36.51;98239.78;5012012;28;20235;-76
2021/06/01 06:59:44;;;;;;;5.13;2.97;;;;;;;23.37;35.96;98237.81;5012703;28;20542;-79
2021/06/01 07:02:10;;;;;;;5.73;2.63;;;;;;;22.10;37.24;98236.44;5015464;28;20199;-76
2021/06/01 07:04:37;;;;;;;4.57;3.03;;;;;;;21.74;37.60;98235.50;5011475;28;20577;-74
2021/06/01 07:07:04;;;;;;;5.27;2.87;;;;;;;22.36;37.67;98244.38;5007635;28;20222;-76
2021/06/01 07:09:37;;;;;;;5.73;2.43;;;;;;;21.50;37.15;98237.00;5013193;28;20235;-76
2021/06/01 07:12:05;;;;;;;6.83;2.93;;;;;;;21.90;38.67;98228.22;5016057;28;20556;-77
2021/06/01 07:14:39;;;;;;;5.37;2.90;;;;;;;22.54;35.30;98243.84;5012941;28;20210;-77
2021/06/01 07:17:06;;;;;;;3.03;1.93;;;;;;;21.43;36.02;98238.34;5012280;28;20593;-75
2021/06/01 07:19:33;;;;;;;4.23;2.00;;;;;;;22.38;34.89;98246.78;5012095;28;20256;-77
2021/06/01 07:22:00;;;;;;;2.50;1.90;;;;;;;22.86;34.30;98238.94;5021432;28;20200;-78
2021/06/01 07:24:27;;;;;;;2.57;1.77;;;;;;;22.99;33.64;98243.00;5011794;28;20230;-75
2021/06/01 07:26:55;;;;;;;2.30;1.63;;;;;;;21.96;34.20;98246.16;5012473;28;20225;-75
2021/06/01 07:29:22;;;;;;;2.83;1.43;;;;;;;22.59;33.89;98241.13;5012112;28;20208;-75
2021/06/01 07:31:50;;;;;;;2.03;1.60;;;;;;;22.39;33.25;98245.72;5012040;28;20209;-76
2021/06/01 07:34:18;;;;;;;2.27;1.83;;;;;;;22.29;33.43;98240.28;5010756;28;20208;-78
2021/06/01 07:36:45;;;;;;;3.03;1.50;;;;;;;23.18;33.20;98241.38;5013029;28;20580;-77
2021/06/01 07:39:11;;;;;;;6.10;1.80;;;;;;;22.49;33.11;98240.34;5011728;28;20631;-76
2021/06/01 07:41:38;;;;;;;3.97;2.13;;;;;;;21.76;33.92;98233.34;5011964;28;20204;-77
2021/06/01 07:44:07;;;;;;;2.70;1.43;;;;;;;23.16;31.78;98244.34;5011416;28;20219;-76
2021/06/01 07:46:34;;;;;;;2.60;1.90;;;;;;;22.82;31.78;98243.31;5009738;28;20278;-82
2021/06/01 07:49:01;;;;;;;2.27;1.70;;;;;;;22.31;32.43;98244.34;5016789;28;20212;-79
2021/06/01 07:51:28;;;;;;;5.53;2.00;;;;;;;23.29;31.89;98224.75;5017147;28;20209;-81
2021/06/01 07:53:56;;;;;;;3.00;1.70;;;;;;;22.90;32.15;98239.22;5014366;28;20205;-77
2021/06/01 07:56:23;;;;;;;3.17;1.80;;;;;;;23.79;31.39;98227.28;5015711;28;20296;-78
2021/06/01 07:58:50;;;;;;;2.93;1.90;;;;;;;22.40;32.20;98234.56;5015392;28;20389;-78
2021/06/01 08:01:19;;;;;;;4.77;1.87;;;;;;;22.95;31.93;98229.13;5011756;28;20334;-79
2021/06/01 08:03:52;;;;;;;3.47;1.97;;;;;;;22.84;31.86;98230.25;5015309;28;20583;-78
2021/06/01 08:06:19;;;;;;;3.70;1.67;;;;;;;23.17;31.70;98223.38;5013894;28;20210;-79
2021/06/01 08:08:46;;;;;;;2.07;1.80;;;;;;;22.65;32.38;98223.72;5011601;28;20294;-79
2021/06/01 08:11:13;;;;;;;4.73;1.77;;;;;;;22.48;32.54;98219.63;5014900;28;20213;-80
2021/06/01 08:13:40;;;;;;;3.43;1.50;;;;;;;23.01;31.92;98219.88;5015367;28;20197;-80
2021/06/01 08:16:06;;;;;;;3.67;1.70;;;;;;;23.57;30.71;98217.84;5014362;28;20304;-81
2021/06/01 08:18:39;;;;;;;4.73;1.80;;;;;;;23.37;30.72;98217.91;5012222;28;20229;-82
2021/06/01 08:21:08;;;;;;;3.77;1.70;;;;;;;23.80;30.43;98212.56;5015026;28;20232;-82
2021/06/01 08:23:36;;;;;;;2.43;1.83;;;;;;;23.02;31.09;98223.41;5014352;28;20230;-81
2021/06/01 08:26:03;;;;;;;3.63;1.90;;;;;;;23.38;31.23;98211.38;5010943;28;20303;-80
2021/06/01 08:28:30;;;;;;;3.20;1.70;;;;;;;23.25;31.28;98214.69;5010944;28;20237;-79
2021/06/01 08:30:57;;;;;;;5.17;1.80;;;;;;;23.87;30.20;98204.06;5013013;28;20213;-81
2021/06/01 08:33:23;;;;;;;3.30;2.03;;;;;;;24.28;29.23;98208.22;5008854;28;20207;-81
2021/06/01 08:35:52;;;;;;;4.50;1.80;;;;;;;24.71;29.27;98215.53;5012519;28;20199;-78
2021/06/01 08:38:21;;;;;;;3.70;1.77;;;;;;;24.74;29.19;98207.59;5011762;28;20219;-79
2021/06/01 08:40:51;;;;;;;4.43;1.70;;;;;;;24.22;29.42;98206.63;5012113;28;20208;-82
2021/06/01 08:43:24;;;;;;;4.13;2.10;;;;;;;24.39;27.84;98210.59;5013174;28;20255;-81
2021/06/01 08:45:52;;;;;;;3.43;1.90;;;;;;;23.36;28.01;98217.09;5018035;28;20211;-81
2021/06/01 08:48:20;;;;;;;2.37;1.50;;;;;;;23.82;27.94;98220.47;5012414;28;20258;-81
2021/06/01 08:50:48;;;;;;;1.90;1.53;;;;;;;24.13;27.75;98217.31;5016186;28;20290;-80
2021/06/01 08:53:16;;;;;;;3.40;1.40;;;;;;;24.20;27.50;98222.44;5015439;28;20656;-78
2021/06/01 08:55:44;;;;;;;3.40;1.70;;;;;;;24.11;26.74;98227.69;5012387;28;20211;-77
2021/06/01 08:58:15;;;;;;;2.10;1.57;;;;;;;24.19;26.51;98218.91;5016106;28;20231;-79
2021/06/01 09:00:42;;;;;;;2.47;1.63;;;;;;;24.54;26.83;98223.28;5016876;28;20229;-81
2021/06/01 09:03:11;;;;;;;2.73;1.73;;;;;;;24.12;26.47;98228.50;5017342;28;20295;-83
2021/06/01 09:05:59;;;;;;;5.53;1.67;;;;;;;23.91;26.15;98225.06;5012179;28;20211;-78
2021/06/01 09:08:50;;;;;;;1.63;1.50;;;;;;;23.51;26.67;98225.22;5012235;28;20273;-77
2021/06/01 09:11:42;;;;;;;3.43;1.70;;;;;;;24.95;25.62;98208.22;5008905;28;20214;-79
2021/06/01 09:14:28;;;;;;;2.53;1.70;;;;;;;24.54;25.44;98226.03;5014345;28;20191;-78
2021/06/01 09:22:31;;;;;;;2.33;1.60;;;;;;;23.99;26.30;98215.47;5009022;28;20235;-79
2021/06/01 09:25:04;;;;;;;1.93;1.40;;;;;;;24.90;25.29;98213.72;5021845;28;20200;-80
2021/06/01 09:27:32;;;;;;;2.93;1.60;;;;;;;;;;5015184;28;20738;-79
2021/06/01 09:29:59;;;;;;;1.90;1.30;;;;;;;24.71;25.69;98207.34;5015485;28;20292;-78
2021/06/01 09:32:26;;;;;;;2.33;1.60;;;;;;;24.74;25.35;98209.50;5015187;28;20695;-80
2021/06/01 09:34:54;;;;;;;1.40;1.30;;;;;;;24.44;25.47;98202.38;5015225;28;20225;-81
2021/06/01 09:37:24;;;;;;;2.17;1.53;;;;;;;25.69;24.16;98206.56;5015367;28;20223;-81
2021/06/01 09:40:14;;;;;;;5.03;1.50;;;;;;;24.62;23.83;98214.53;5010548;28;20208;-80
2021/06/01 09:42:43;;;;;;;1.47;1.37;;;;;;;25.19;24.15;98214.53;5014314;28;20686;-80
2021/06/01 09:45:12;;;;;;;4.33;1.63;;;;;;;25.16;24.83;98198.72;5014908;28;20567;-78
2021/06/01 09:47:48;;;;;;;3.17;1.57;;;;;;;25.86;24.55;98192.41;5017753;28;20691;-78
2021/06/01 09:50:22;;;;;;;1.20;1.10;;;;;;;25.32;24.17;98198.28;5015310;28;20191;-79
2021/06/01 09:52:51;;;;;;;6.30;1.67;;;;;;;25.48;25.54;98185.28;5015974;28;20211;-80
2021/06/01 09:55:30;;;;;;;1.77;1.47;;;;;;;25.32;24.38;98192.00;5016221;28;20224;-79
2021/06/01 09:58:00;;;;;;;1.57;1.30;;;;;;;26.21;24.50;98183.75;5010298;28;20289;-79
2021/06/01 10:00:27;;;;;;;4.33;1.50;;;;;;;24.73;24.16;98194.25;5015385;28;20211;-80
2021/06/01 10:02:57;;;;;;;1.77;1.37;;;;;;;25.58;24.04;98182.41;5025955;28;20200;-82
2021/06/01 10:05:26;;;;;;;3.10;1.60;;;;;;;25.60;24.03;98191.13;5022955;28;20291;-79
2021/06/01 10:07:55;;;;;;;3.23;1.50;;;;;;;27.02;23.50;98181.28;5030505;28;20227;-78
2021/06/01 10:10:25;;;;;;;1.93;1.60;;;;;;;26.77;23.14;98179.00;5019699;28;20199;-80
2021/06/01 10:12:53;;;;;;;4.67;1.50;;;;;;;27.19;22.85;98187.84;5017084;28;20199;-80
2021/06/01 10:15:22;;;;;;;3.03;1.57;;;;;;;25.60;24.87;98175.53;5025962;28;20207;-79
2021/06/01 10:17:50;;;;;;;3.20;1.63;;;;;;;25.68;25.00;98169.41;5017056;28;20226;-81
2021/06/01 10:20:19;;;;;;;2.00;1.80;;;;;;;25.76;25.13;98168.78;5020846;28;20199;-79
2021/06/01 10:22:46;;;;;;;2.00;1.60;;;;;;;24.80;25.51;98164.69;5015526;28;20234;-81
2021/06/01 10:25:13;;;;;;;4.40;2.00;;;;;;;26.32;24.94;98155.91;5015085;28;20623;-79
2021/06/01 10:27:42;;;;;;;2.30;1.57;;;;;;;26.14;23.71;98173.16;5023153;28;20238;-80
2021/06/01 10:30:10;;;;;;;2.80;1.70;;;;;;;25.52;24.64;98170.72;5023957;28;20221;-80
2021/06/01 10:32:40;;;;;;;2.13;1.40;;;;;;;26.66;23.73;98159.19;5020148;28;20206;-80
2021/06/01 10:35:11;;;;;;;3.03;1.60;;;;;;;26.29;23.91;98164.72;5024808;28;20229;-82
2021/06/01 10:49:57;;;;;;;3.47;1.50;;;;;;;27.28;23.59;98146.84;5017320;28;20234;-79
2021/06/01 10:52:16;;;;;;;4.40;1.70;;;;;;;26.67;24.11;98160.84;5022912;28;20199;-79
2021/06/01 10:55:06;;;;;;;2.80;1.40;;;;;;;26.18;23.89;98159.69;5026292;28;20286;-78
2021/06/01 10:57:58;;;;;;;2.80;1.73;;;;;;;26.41;23.64;98142.38;5025978;28;20314;-79
2021/06/01 11:03:15;;;;;;;3.80;1.60;;;;;;;26.68;23.07;98140.56;5025300;28;20269;-78
2021/06/01 11:06:06;;;;;;;3.70;1.87;;;;;;;27.81;23.48;98125.97;5022993;28;20215;-78
2021/06/01 11:08:37;;;;;;;14.93;2.67;;;;;;;26.12;23.55;98148.03;5021626;28;20235;-78
2021/06/01 11:11:31;;;;;;;3.10;1.60;;;;;;;27.45;22.78;98133.31;5018176;28;20294;-76
2021/06/01 11:13:59;;;;;;;4.33;1.90;;;;;;;26.17;22.85;98137.00;5014537;28;20204;-80
2021/06/01 11:16:54;;;;;;;3.50;1.73;;;;;;;26.34;22.97;98137.25;5019684;28;20215;-80
2021/06/01 11:19:25;;;;;;;2.67;1.60;;;;;;;26.88;23.00;98136.63;5011932;28;20231;-79
2021/06/01 11:21:59;;;;;;;4.60;1.87;;;;;;;27.08;21.77;98130.75;5017244;28;20688;-79
2021/06/01 11:33:16;;;;;;;2.60;1.80;;;;;;;27.34;21.44;98135.47;5023558;28;20206;-80
2021/06/01 11:35:45;;;;;;;2.37;1.60;;;;;;;27.30;22.16;98119.91;5016630;28;20686;-78
2021/06/01 11:38:17;;;;;;;1.63;1.40;;;;;;;28.26;20.51;98119.41;5015222;28;20220;-78
2021/06/01 11:43:33;;;;;;;2.67;1.47;;;;;;;27.24;20.63;98130.19;5016692;28;20250;-78
2021/06/01 11:46:07;;;;;;;2.33;1.70;;;;;;;26.86;21.52;98130.66;5015626;28;20208;-78
2021/06/01 11:51:30;;;;;;;3.13;1.67;;;;;;;27.76;22.18;98102.19;5014548;28;20276;-77
2021/06/01 11:53:59;;;;;;;3.60;1.60;;;;;;;27.59;22.61;98096.53;5013502;28;20228;-78
2021/06/01 11:57:03;;;;;;;3.70;1.70;;;;;;;26.65;22.82;98112.97;5013322;28;20215;-77
2021/06/01 12:02:38;;;;;;;9.00;1.73;;;;;;;26.98;22.98;98087.94;5020161;28;20617;-79
2021/06/01 12:05:23;;;;;;;2.50;1.70;;;;;;;27.24;22.54;98091.81;5009003;28;20319;-78
2021/06/01 12:18:55;;;;;;;2.20;1.30;;;;;;;27.53;21.75;98086.81;5013895;28;20207;-79
2021/06/01 12:21:26;;;;;;;5.50;2.33;;;;;;;27.55;21.32;98089.22;5018831;28;20223;-80
2021/06/01 12:23:59;;;;;;;2.07;1.77;;;;;;;27.84;22.33;98081.47;5018568;28;20882;-76
2021/06/01 12:26:35;;;;;;;2.67;1.57;;;;;;;27.72;21.08;98081.97;5018170;28;20282;-78
2021/06/01 12:31:58;;;;;;;2.30;1.57;;;;;;;28.71;22.32;98066.91;5022645;28;20215;-81
2021/06/01 12:34:29;;;;;;;2.70;1.73;;;;;;;27.49;22.24;98069.34;5022456;28;20220;-80
2021/06/01 12:42:59;;;;;;;4.37;1.80;;;;;;;28.78;21.75;98064.50;5022564;28;20273;-82
2021/06/01 12:45:42;;;;;;;3.83;1.50;;;;;;;27.64;22.34;98062.69;5025223;28;20207;-81
2021/06/01 13:19:21;;;;;;;4.43;1.60;;;;;;;27.12;22.50;98022.97;5024547;28;20274;-78
2021/06/01 13:21:52;;;;;;;5.17;1.67;;;;;;;28.14;22.27;98023.94;5017004;28;20205;-78
2021/06/01 13:30:11;;;;;;;8.87;2.43;;;;;;;29.31;20.79;98018.47;5016894;28;20294;-79
2021/06/01 13:30:31;;;;;;;5.07;2.10;;;;;;;28.33;21.49;98021.75;5015549;28;20253;-81
2021/06/01 13:38:44;;;;;;;2.50;1.70;;;;;;;27.25;20.37;98022.19;5017609;28;20359;-82
2021/06/01 13:47:04;;;;;;;5.43;2.03;;;;;;;29.05;20.12;98022.28;4992223;28;20566;-85
2021/06/01 13:49:39;;;;;;;2.33;1.70;;;;;;;27.30;21.30;98026.72;4989173;28;20229;-85
2021/06/01 13:52:17;;;;;;;2.27;1.77;;;;;;;27.88;20.92;98008.41;5012927;28;20296;-86
2021/06/01 13:57:35;;;;;;;2.03;1.50;;;;;;;28.40;20.06;98013.09;5014457;28;20247;-87
2021/06/01 14:00:16;;;;;;;1.43;1.30;;;;;;;28.14;19.74;98014.88;5015322;28;20210;-87
2021/06/01 14:22:22;;;;;;;1.90;1.50;;;;;;;30.90;17.06;98007.91;5022916;28;20768;-87
2021/06/01 14:28:05;;;;;;;3.03;1.40;;;;;;;30.50;17.15;98006.63;5015050;28;20277;-86
2021/06/01 14:30:40;;;;;;;1.85;1.50;;;;;;;31.00;17.19;97996.50;5014229;28;20309;-87
2021/06/01 14:36:05;;;;;;;4.97;1.98;;;;;;;30.14;19.07;97985.00;5015031;28;20255;-86
2021/06/01 15:29:33;;;;;;;3.80;3.10;;;26.60;1.00;;;32.41;18.17;97932.50;5036050;28;20195;-86
2021/06/01 15:32:05;;;;;;;3.28;1.90;;;27.30;1.00;;;30.36;19.23;97937.94;5029763;28;20206;-87
2021/06/01 15:51:56;;;;;;;11.35;1.90;;;26.10;1.00;;;32.52;17.79;97930.09;5152463;27;20900;-77
2021/06/01 16:11:30;;;;;;;2.63;1.60;;;28.80;1.00;;;31.52;18.11;97917.81;5124872;28;20209;-86
2021/06/01 16:14:03;;;;;;;2.00;1.60;;;27.80;1.00;;;32.07;17.54;97912.75;5123474;28;20202;-85
2021/06/01 16:22:24;;;;;;;8.02;1.80;;;26.90;1.00;;;31.42;18.20;97912.72;5129767;27;20210;-82
2021/06/01 16:30:31;;;;;;;5.68;1.77;;;28.00;1.00;;;32.23;17.58;97902.66;5134212;27;20313;-85